createdAt,value
2022-08-19T00:00:51.252Z,1.35
2022-08-19T00:03:17.637Z,1.00
2022-08-19T00:05:44.123Z,1.40
2022-08-19T00:08:10.480Z,0.90
2022-08-19T00:10:36.796Z,2.00
2022-08-19T00:13:03.280Z,2.47
2022-08-19T00:15:29.698Z,2.28
2022-08-19T00:17:56.258Z,1.73
2022-08-19T00:20:22.724Z,3.42
2022-08-19T00:22:49.353Z,2.92
2022-08-19T00:25:16.325Z,2.83
2022-08-19T00:27:44.126Z,4.00
2022-08-19T00:30:11.496Z,3.55
2022-08-19T00:32:38.120Z,2.58
2022-08-19T00:35:05.985Z,4.10
2022-08-19T00:37:34.021Z,4.57
2022-08-19T00:40:00.486Z,4.10
2022-08-19T00:42:29.304Z,3.67
2022-08-19T00:44:55.740Z,4.47
2022-08-19T00:47:22.344Z,3.65
2022-08-19T00:49:52.266Z,2.85
2022-08-19T00:52:21.996Z,3.45
2022-08-19T00:54:52.539Z,3.28
2022-08-19T00:57:20.055Z,4.28
2022-08-19T01:00:02.013Z,4.53
2022-08-19T01:02:29.964Z,3.47
2022-08-19T01:04:56.884Z,4.05
2022-08-19T01:07:23.630Z,4.13
2022-08-19T01:09:50.466Z,4.28
2022-08-19T01:12:17.722Z,4.88
2022-08-19T01:14:44.648Z,4.95
2022-08-19T01:17:12.080Z,4.82
2022-08-19T01:19:44.292Z,5.82
2022-08-19T01:22:27.370Z,5.53
2022-08-19T01:24:57.424Z,4.85
2022-08-19T01:27:23.766Z,5.60
2022-08-19T01:29:51.082Z,7.10
2022-08-19T01:32:32.038Z,5.80
2022-08-19T01:35:02.498Z,4.68
2022-08-19T01:37:29.134Z,5.10
2022-08-19T01:39:55.545Z,6.40
2022-08-19T01:42:23.084Z,6.00
2022-08-19T01:44:57.226Z,6.07
2022-08-19T01:47:23.584Z,9.95
2022-08-19T01:49:49.921Z,7.18
2022-08-19T01:52:16.305Z,6.65
2022-08-19T01:54:42.669Z,5.10
2022-08-19T01:57:10.597Z,6.10
2022-08-19T01:59:37.480Z,5.63
2022-08-19T02:02:08.044Z,4.50
2022-08-19T02:04:35.120Z,5.38
2022-08-19T02:07:01.983Z,7.05
2022-08-19T02:09:28.457Z,6.10
2022-08-19T02:11:54.785Z,5.15
2022-08-19T02:14:21.142Z,5.15
2022-08-19T02:16:47.477Z,6.50
2022-08-19T02:19:13.894Z,4.43
2022-08-19T02:21:40.377Z,3.70
2022-08-19T02:24:06.830Z,4.18
2022-08-19T02:26:33.439Z,3.75
2022-08-19T02:29:01.338Z,4.38
2022-08-19T02:31:28.935Z,4.90
2022-08-19T02:33:56.902Z,4.13
2022-08-19T02:36:24.300Z,4.15
2022-08-19T02:38:54.489Z,4.90
2022-08-19T02:41:31.894Z,3.72
2022-08-19T02:44:26.825Z,2.58
2022-08-19T02:46:48.974Z,3.58
2022-08-19T02:49:18.076Z,2.60
2022-08-19T02:51:45.281Z,3.13
2022-08-19T02:54:12.304Z,3.08
2022-08-19T02:56:40.169Z,3.50
2022-08-19T02:59:11.164Z,2.80
2022-08-19T03:01:40.589Z,2.47
2022-08-19T03:04:07.657Z,2.40
2022-08-19T03:06:36.931Z,3.15
2022-08-19T03:09:03.634Z,1.67
2022-08-19T03:11:31.036Z,1.48
2022-08-19T03:13:58.010Z,1.52
2022-08-19T03:16:25.420Z,1.30
2022-08-19T03:18:52.157Z,2.03
2022-08-19T03:21:19.547Z,1.58
2022-08-19T03:23:46.202Z,1.75
2022-08-19T03:26:16.786Z,2.03
2022-08-19T03:28:51.605Z,1.85
2022-08-19T03:31:43.730Z,1.40
2022-08-19T03:34:12.927Z,2.03
2022-08-19T03:36:40.488Z,1.58
2022-08-19T03:39:06.809Z,1.30
2022-08-19T03:41:45.844Z,1.67
2022-08-19T03:44:18.397Z,1.67
2022-08-19T03:46:45.918Z,1.98
2022-08-19T03:49:13.957Z,1.63
2022-08-19T03:51:41.893Z,1.00
2022-08-19T03:54:09.636Z,1.60
2022-08-19T03:56:37.740Z,1.92
2022-08-19T03:59:05.726Z,2.58
2022-08-19T04:01:35.033Z,2.22
2022-08-19T04:04:02.176Z,2.33
2022-08-19T04:06:32.059Z,3.25
2022-08-19T04:08:59.356Z,2.30
2022-08-19T04:11:43.864Z,3.30
2022-08-19T04:14:12.211Z,2.80
2022-08-19T04:16:38.795Z,2.05
2022-08-19T04:19:06.002Z,1.90
2022-08-19T04:21:32.793Z,1.63
2022-08-19T04:23:59.746Z,2.13
2022-08-19T04:26:33.081Z,1.40
2022-08-19T04:29:02.239Z,1.50
2022-08-19T04:31:30.421Z,2.17
2022-08-19T04:33:57.762Z,1.92
2022-08-19T04:36:25.760Z,2.22
2022-08-19T04:38:54.442Z,2.17
2022-08-19T04:41:39.509Z,3.40
2022-08-19T04:44:05.858Z,3.65
2022-08-19T04:46:40.269Z,2.78
2022-08-19T04:49:17.936Z,3.47
2022-08-19T04:51:46.697Z,3.35
2022-08-19T04:54:13.387Z,3.40
2022-08-19T04:56:40.801Z,2.40
2022-08-19T04:59:07.555Z,3.00
2022-08-19T05:01:34.130Z,2.35
2022-08-19T05:04:01.728Z,2.78
2022-08-19T05:06:29.580Z,2.78
2022-08-19T05:08:55.930Z,2.30
2022-08-19T05:11:26.634Z,3.30
2022-08-19T05:13:53.389Z,2.30
2022-08-19T05:16:21.477Z,2.45
2022-08-19T05:19:06.952Z,2.65
2022-08-19T05:21:52.464Z,3.13
2022-08-19T05:24:19.715Z,1.77
2022-08-19T05:26:47.393Z,2.75
2022-08-19T05:29:15.288Z,2.20
2022-08-19T05:31:42.386Z,2.05
2022-08-19T05:34:18.214Z,1.80
2022-08-19T05:36:46.710Z,1.90
2022-08-19T05:39:14.445Z,2.95
2022-08-19T05:41:44.276Z,2.47
2022-08-19T05:44:10.837Z,1.85
2022-08-19T05:46:38.352Z,1.77
2022-08-19T05:49:06.494Z,2.33
2022-08-19T05:51:33.780Z,2.17
2022-08-19T05:54:00.240Z,2.63
2022-08-19T05:56:26.959Z,2.10
2022-08-19T05:58:54.998Z,2.08
2022-08-19T06:01:21.786Z,1.30
2022-08-19T06:03:51.077Z,1.30
2022-08-19T06:06:17.502Z,1.48
2022-08-19T06:08:46.132Z,1.05
2022-08-19T06:11:17.391Z,1.40
2022-08-19T06:13:44.622Z,1.80
2022-08-19T06:16:10.972Z,1.58
2022-08-19T06:18:37.850Z,1.90
2022-08-19T06:21:05.257Z,2.35
2022-08-19T06:23:31.780Z,3.15
2022-08-19T06:25:58.129Z,3.20
2022-08-19T06:28:24.712Z,3.38
2022-08-19T06:30:52.205Z,1.77
2022-08-19T06:33:18.703Z,2.05
2022-08-19T06:38:16.491Z,2.15
2022-08-19T06:43:16.753Z,1.60
2022-08-19T06:45:44.856Z,1.85
2022-08-19T06:48:14.209Z,1.50
2022-08-19T06:50:41.162Z,1.27
2022-08-19T06:53:07.602Z,1.20
2022-08-19T06:55:33.993Z,1.27
2022-08-19T06:58:03.395Z,1.10
2022-08-19T07:03:06.035Z,1.10
2022-08-19T07:05:38.660Z,0.80
2022-08-19T07:08:07.030Z,0.60
2022-08-19T07:10:33.895Z,0.68
2022-08-19T07:13:00.378Z,1.08
2022-08-19T07:15:26.938Z,0.32
2022-08-19T07:17:53.274Z,1.08
2022-08-19T07:20:19.793Z,1.45
2022-08-19T07:22:46.397Z,0.90
2022-08-19T07:25:14.183Z,0.70
2022-08-19T07:27:40.617Z,0.70
2022-08-19T07:30:07.948Z,0.82
2022-08-19T07:32:38.114Z,0.50
2022-08-19T07:35:06.779Z,0.50
2022-08-19T07:37:33.635Z,1.00
2022-08-19T07:40:00.610Z,3.05
2022-08-19T07:42:27.684Z,0.90
2022-08-19T07:44:54.020Z,1.58
2022-08-19T07:47:49.048Z,6.60
2022-08-19T07:50:08.874Z,8.02
2022-08-19T07:52:36.812Z,5.15
2022-08-19T07:55:04.909Z,4.20
2022-08-19T07:57:31.476Z,2.55
2022-08-19T07:59:57.811Z,2.58
2022-08-19T08:02:24.128Z,3.60
2022-08-19T08:05:09.346Z,3.10
2022-08-19T08:07:54.170Z,4.82
2022-08-19T08:10:21.543Z,3.03
2022-08-19T08:13:08.585Z,3.90
2022-08-19T08:15:42.185Z,3.20
2022-08-19T08:18:09.958Z,2.97
2022-08-19T08:20:36.284Z,7.18
2022-08-19T08:23:21.974Z,5.20
2022-08-19T08:25:49.826Z,3.80
2022-08-19T08:28:17.547Z,7.35
2022-08-19T08:30:46.654Z,8.60
2022-08-19T08:33:13.218Z,9.55
2022-08-19T08:35:43.128Z,6.35
2022-08-19T08:38:09.499Z,4.90
2022-08-19T08:40:38.841Z,5.70
2022-08-19T08:43:22.350Z,4.20
2022-08-19T08:45:53.614Z,5.53
2022-08-19T08:50:51.488Z,3.88
2022-08-19T08:53:26.280Z,7.13
2022-08-19T08:55:56.380Z,5.25
2022-08-19T08:58:28.655Z,5.78
2022-08-19T09:00:55.025Z,6.03
2022-08-19T09:03:23.681Z,5.15
2022-08-19T09:05:53.014Z,7.85
2022-08-19T09:08:27.565Z,5.65
2022-08-19T09:10:55.702Z,4.95
2022-08-19T09:13:37.343Z,5.68
2022-08-19T09:16:15.502Z,5.93
2022-08-19T09:18:44.916Z,6.47
2022-08-19T09:21:11.277Z,4.90
2022-08-19T09:23:37.857Z,3.42
2022-08-19T09:26:08.522Z,3.80
2022-08-19T09:28:37.929Z,3.08
2022-08-19T09:31:05.541Z,3.40
2022-08-19T09:33:32.197Z,3.05
2022-08-19T09:36:08.616Z,4.22
2022-08-19T09:38:36.585Z,6.18
2022-08-19T09:41:14.875Z,4.70
2022-08-19T09:43:44.475Z,3.20
2022-08-19T09:46:18.100Z,4.70
2022-08-19T09:48:45.638Z,5.50
2022-08-19T09:51:16.344Z,3.28
2022-08-19T09:53:43.581Z,3.00
2022-08-19T09:56:10.534Z,2.63
2022-08-19T09:58:37.548Z,2.65
2022-08-19T10:01:05.579Z,2.30
2022-08-19T10:03:33.377Z,3.20
2022-08-19T10:06:00.890Z,2.58
2022-08-19T10:08:29.290Z,2.58
2022-08-19T10:10:56.433Z,3.00
2022-08-19T10:13:27.058Z,2.80
2022-08-19T10:15:54.746Z,2.70
2022-08-19T10:18:22.831Z,2.47
2022-08-19T10:20:51.650Z,5.10
2022-08-19T10:23:20.693Z,4.10
2022-08-19T10:25:48.303Z,2.60
2022-08-19T10:28:14.690Z,1.83
2022-08-19T10:30:41.444Z,1.58
2022-08-19T10:33:11.240Z,2.30
2022-08-19T10:35:42.779Z,3.55
2022-08-19T10:38:30.001Z,2.60
2022-08-19T10:40:58.139Z,2.13
2022-08-19T10:43:25.902Z,2.17
2022-08-19T10:46:00.159Z,2.30
2022-08-19T10:48:26.680Z,3.60
2022-08-19T10:51:12.502Z,3.00
2022-08-19T10:53:49.647Z,3.78
2022-08-19T10:56:34.716Z,2.17
2022-08-19T10:59:01.265Z,2.00
2022-08-19T11:01:28.153Z,2.08
2022-08-19T11:03:54.517Z,1.85
2022-08-19T11:06:21.877Z,2.17
2022-08-19T11:08:48.265Z,1.88
2022-08-19T11:11:14.591Z,2.03
2022-08-19T11:13:42.127Z,2.50
2022-08-19T11:16:14.281Z,3.15
2022-08-19T11:18:43.673Z,2.38
2022-08-19T11:21:20.357Z,1.83
2022-08-19T11:23:47.961Z,3.50
2022-08-19T11:26:14.776Z,2.97
2022-08-19T11:28:41.720Z,2.70
2022-08-19T11:31:15.716Z,2.30
2022-08-19T11:33:42.129Z,2.30
2022-08-19T11:36:15.056Z,2.40
2022-08-19T11:38:41.751Z,1.70
2022-08-19T11:41:08.324Z,2.20
2022-08-19T11:43:37.507Z,2.40
2022-08-19T11:46:11.527Z,2.25
2022-08-19T11:48:38.200Z,3.35
2022-08-19T11:51:07.109Z,3.90
2022-08-19T11:53:33.974Z,2.95
2022-08-19T11:56:00.315Z,2.90
2022-08-19T11:58:26.642Z,2.60
2022-08-19T12:00:53.429Z,3.72
2022-08-19T12:03:20.532Z,3.10
2022-08-19T12:05:47.368Z,2.95
2022-08-19T12:08:13.931Z,3.35
2022-08-19T12:10:41.840Z,2.50
2022-08-19T12:13:08.534Z,2.17
2022-08-19T12:15:38.740Z,2.60
2022-08-19T12:18:05.405Z,2.58
2022-08-19T12:20:31.805Z,1.50
2022-08-19T12:23:01.858Z,1.67
2022-08-19T12:25:28.235Z,1.80
2022-08-19T12:27:57.580Z,3.30
2022-08-19T12:30:25.005Z,3.10
2022-08-19T12:32:52.205Z,3.05
2022-08-19T12:35:20.887Z,2.38
2022-08-19T12:37:53.276Z,2.33
2022-08-19T12:40:23.907Z,2.17
2022-08-19T12:42:52.732Z,1.58
2022-08-19T12:45:19.256Z,2.70
2022-08-19T12:47:47.136Z,2.70
2022-08-19T12:50:14.113Z,2.35
2022-08-19T12:52:41.779Z,2.10
2022-08-19T12:55:08.371Z,2.10
2022-08-19T12:57:36.454Z,1.92
2022-08-19T13:00:12.621Z,2.90
2022-08-19T13:02:39.451Z,3.65
2022-08-19T13:05:07.723Z,3.05
2022-08-19T13:07:34.046Z,3.20
2022-08-19T13:10:01.132Z,2.15
2022-08-19T13:12:27.589Z,2.97
2022-08-19T13:14:54.356Z,3.38
2022-08-19T13:17:21.315Z,2.33
2022-08-19T13:19:47.728Z,1.92
2022-08-19T13:22:15.208Z,1.88
2022-08-19T13:24:46.896Z,2.13
2022-08-19T13:27:13.973Z,1.65
2022-08-19T13:30:00.031Z,2.13
2022-08-19T13:32:45.245Z,3.22
2022-08-19T13:35:16.740Z,2.90
2022-08-19T13:37:43.468Z,2.50
2022-08-19T13:40:16.508Z,2.85
2022-08-19T13:42:43.592Z,3.50
2022-08-19T13:45:10.701Z,2.80
2022-08-19T13:47:43.625Z,2.50
2022-08-19T13:50:11.760Z,1.88
2022-08-19T13:52:39.232Z,1.40
2022-08-19T13:55:06.570Z,1.63
2022-08-19T13:57:33.126Z,3.03
2022-08-19T13:59:59.694Z,3.05
2022-08-19T14:02:27.443Z,2.55
2022-08-19T14:04:53.890Z,2.15
2022-08-19T14:07:20.238Z,2.50
2022-08-19T14:09:46.614Z,2.75
2022-08-19T14:12:19.005Z,2.10
2022-08-19T14:14:55.672Z,3.55
2022-08-19T14:17:22.421Z,2.50
2022-08-19T14:19:49.051Z,4.22
2022-08-19T14:22:15.417Z,2.97
2022-08-19T14:24:48.895Z,2.65
2022-08-19T14:27:15.749Z,2.20
2022-08-19T14:29:42.222Z,3.38
2022-08-19T14:32:08.613Z,2.05
2022-08-19T14:34:42.519Z,2.25
2022-08-19T14:37:10.410Z,2.10
2022-08-19T14:39:43.842Z,1.73
2022-08-19T14:42:11.575Z,1.48
2022-08-19T14:44:38.306Z,1.80
2022-08-19T14:47:04.753Z,1.42
2022-08-19T14:49:34.987Z,0.93
2022-08-19T14:52:06.007Z,1.60
2022-08-19T14:54:32.633Z,1.73
2022-08-19T14:56:59.202Z,1.67
2022-08-19T14:59:25.847Z,1.42
2022-08-19T15:01:52.336Z,1.73
2022-08-19T15:04:18.774Z,1.75
2022-08-19T15:06:45.172Z,2.10
2022-08-19T15:09:11.501Z,2.30
2022-08-19T15:11:39.314Z,2.35
2022-08-19T15:14:06.388Z,2.20
2022-08-19T15:16:33.338Z,1.70
2022-08-19T15:19:00.666Z,1.58
2022-08-19T15:21:28.169Z,2.05
2022-08-19T15:23:55.502Z,1.67
2022-08-19T15:26:22.152Z,1.40
2022-08-19T15:28:48.638Z,1.50
2022-08-19T15:31:28.355Z,1.40
2022-08-19T15:33:58.306Z,1.40
2022-08-19T15:36:26.149Z,1.20
2022-08-19T15:38:53.241Z,1.65
2022-08-19T15:41:24.193Z,1.10
2022-08-19T15:43:51.499Z,1.73
2022-08-19T15:46:24.711Z,1.95
2022-08-19T15:48:55.995Z,1.38
2022-08-19T15:51:26.783Z,1.23
2022-08-19T15:53:53.554Z,1.50
2022-08-19T15:56:19.876Z,1.60
2022-08-19T15:59:04.986Z,2.20
2022-08-19T16:01:31.394Z,2.20
2022-08-19T16:04:20.126Z,1.70
2022-08-19T16:06:47.611Z,1.50
2022-08-19T16:09:14.289Z,2.35
2022-08-19T16:11:45.579Z,2.53
2022-08-19T16:14:12.694Z,2.90
2022-08-19T16:16:39.466Z,2.83
2022-08-19T16:19:10.603Z,2.38
2022-08-19T16:21:39.525Z,2.15
2022-08-19T16:24:08.907Z,2.28
2022-08-19T16:26:35.480Z,2.70
2022-08-19T16:29:02.643Z,1.95
2022-08-19T16:31:29.169Z,2.50
2022-08-19T16:33:55.628Z,2.40
2022-08-19T16:36:24.186Z,2.45
2022-08-19T16:38:54.178Z,1.63
2022-08-19T16:41:21.210Z,2.60
2022-08-19T16:43:49.262Z,2.53
2022-08-19T16:46:17.862Z,2.50
2022-08-19T16:48:45.421Z,1.77
2022-08-19T16:51:12.469Z,2.40
2022-08-19T16:53:40.452Z,1.83
2022-08-19T16:56:07.272Z,2.00
2022-08-19T16:58:34.176Z,2.42
2022-08-19T17:01:04.237Z,2.08
2022-08-19T17:03:35.872Z,2.45
2022-08-19T17:06:03.912Z,1.67
2022-08-19T17:08:31.096Z,2.00
2022-08-19T17:11:17.192Z,1.88
2022-08-19T17:13:44.680Z,1.33
2022-08-19T17:16:14.141Z,2.95
2022-08-19T17:18:40.475Z,2.58
2022-08-19T17:21:06.822Z,2.20
2022-08-19T17:23:42.180Z,1.27
2022-08-19T17:26:09.858Z,1.60
2022-08-19T17:28:43.992Z,1.02
2022-08-19T17:31:11.383Z,0.77
2022-08-19T17:33:41.308Z,1.27
2022-08-19T17:36:08.817Z,1.65
2022-08-19T17:38:35.933Z,1.38
2022-08-19T17:41:05.935Z,1.38
2022-08-19T17:43:40.041Z,1.42
2022-08-19T17:46:11.200Z,1.30
2022-08-19T17:48:40.870Z,1.30
2022-08-19T17:51:40.202Z,1.00
2022-08-19T17:54:07.284Z,1.25
2022-08-19T17:56:33.619Z,1.50
2022-08-19T17:59:01.661Z,1.42
2022-08-19T18:01:44.034Z,1.77
2022-08-19T18:04:17.180Z,1.58
2022-08-19T18:06:46.894Z,2.08
2022-08-19T18:09:19.305Z,2.92
2022-08-19T18:11:47.309Z,2.10
2022-08-19T18:14:19.231Z,1.85
2022-08-19T18:16:46.498Z,0.98
2022-08-19T18:19:12.867Z,1.40
2022-08-19T18:21:40.773Z,1.63
2022-08-19T18:24:07.186Z,1.77
2022-08-19T18:26:33.850Z,1.52
2022-08-19T18:29:00.166Z,1.05
2022-08-19T18:31:26.556Z,1.30
2022-08-19T18:33:53.011Z,1.10
2022-08-19T18:36:37.488Z,0.80
2022-08-19T18:39:25.267Z,1.33
2022-08-19T18:42:14.421Z,1.70
2022-08-19T18:45:00.013Z,0.85
2022-08-19T18:47:45.357Z,0.52
2022-08-19T18:50:13.045Z,1.48
2022-08-19T18:52:40.372Z,0.65
2022-08-19T18:55:07.468Z,0.30
2022-08-19T18:57:34.360Z,0.65
2022-08-19T19:00:02.531Z,0.57
2022-08-19T19:02:29.170Z,0.70
2022-08-19T19:04:56.185Z,0.55
2022-08-19T19:07:23.361Z,0.30
2022-08-19T19:09:52.490Z,0.45
2022-08-19T19:12:18.877Z,0.70
2022-08-19T19:14:49.526Z,0.73
2022-08-19T19:17:16.416Z,0.77
2022-08-19T19:19:43.977Z,0.50
2022-08-19T19:22:11.604Z,0.52
2022-08-19T19:24:39.142Z,0.90
2022-08-19T19:27:08.446Z,0.60
2022-08-19T19:29:36.598Z,0.40
2022-08-19T19:32:06.893Z,0.30
2022-08-19T19:34:33.635Z,0.80
2022-08-19T19:36:59.969Z,0.90
2022-08-19T19:39:30.516Z,0.40
2022-08-19T19:42:19.623Z,0.57
2022-08-19T19:44:48.750Z,0.30
2022-08-19T19:47:19.068Z,0.30
2022-08-19T19:50:10.770Z,0.90
2022-08-19T19:52:32.706Z,0.45
2022-08-19T19:54:59.039Z,1.48
2022-08-19T19:57:26.636Z,0.30
2022-08-19T19:59:54.359Z,0.10
2022-08-19T20:02:21.994Z,0.20
2022-08-19T20:04:51.108Z,0.20
2022-08-19T20:07:17.724Z,0.20
2022-08-19T20:09:59.219Z,0.10
2022-08-19T20:12:26.723Z,0.10
2022-08-19T20:14:53.057Z,0.10
2022-08-19T20:17:20.635Z,0.20
2022-08-19T20:19:47.907Z,0.20
2022-08-19T20:22:14.446Z,0.10
2022-08-19T20:24:42.360Z,0.20
2022-08-19T20:27:09.150Z,0.20
2022-08-19T20:29:38.392Z,0.20
2022-08-19T20:32:07.013Z,0.20
2022-08-19T20:34:33.876Z,0.30
2022-08-19T20:37:00.222Z,0.40
2022-08-19T20:39:26.559Z,0.30
2022-08-19T20:41:52.966Z,0.22
2022-08-19T20:44:19.346Z,0.10
2022-08-19T20:46:55.275Z,0.30
2022-08-19T20:49:23.051Z,0.22
2022-08-19T20:51:54.524Z,0.10
2022-08-19T20:54:20.933Z,0.20
2022-08-19T20:56:47.286Z,0.28
2022-08-19T20:59:13.622Z,0.20
2022-08-19T21:01:39.945Z,0.22
2022-08-19T21:04:06.381Z,0.20
2022-08-19T21:06:32.708Z,0.30
2022-08-19T21:08:59.055Z,0.20
2022-08-19T21:11:25.500Z,0.30
2022-08-19T21:13:51.836Z,0.20
2022-08-19T21:16:18.178Z,0.10
2022-08-19T21:18:44.532Z,0.30
2022-08-19T21:21:11.004Z,0.10
2022-08-19T21:23:37.361Z,0.10
2022-08-19T21:26:03.838Z,0.20
2022-08-19T21:28:35.994Z,0.22
2022-08-19T21:31:04.128Z,0.10
2022-08-19T21:33:32.151Z,0.22
2022-08-19T21:35:59.254Z,0.20
2022-08-19T21:38:25.615Z,0.20
2022-08-19T21:40:52.083Z,0.00
2022-08-19T21:43:18.532Z,0.20
2022-08-19T21:45:46.116Z,0.30
2022-08-19T21:48:14.584Z,0.30
2022-08-19T21:50:41.482Z,0.20
2022-08-19T21:53:07.894Z,0.10
2022-08-19T21:55:37.966Z,0.10
2022-08-19T21:58:04.501Z,0.63
2022-08-19T22:00:32.248Z,0.47
2022-08-19T22:02:59.266Z,0.30
2022-08-19T22:05:26.114Z,0.30
2022-08-19T22:07:53.556Z,0.30
2022-08-19T22:10:22.359Z,0.20
2022-08-19T22:12:51.705Z,0.55
2022-08-19T22:15:20.374Z,0.40
2022-08-19T22:17:46.840Z,0.30
2022-08-19T22:20:19.529Z,0.20
2022-08-19T22:23:00.572Z,0.40
2022-08-19T22:25:31.218Z,0.20
2022-08-19T22:28:00.497Z,0.60
2022-08-19T22:30:27.936Z,0.35
2022-08-19T22:33:01.278Z,0.30
2022-08-19T22:35:31.252Z,0.60
2022-08-19T22:37:58.844Z,0.32
2022-08-19T22:40:25.922Z,0.20
2022-08-19T22:43:03.971Z,0.10
2022-08-19T22:45:30.923Z,0.20
2022-08-19T22:47:57.592Z,0.20
2022-08-19T22:50:24.539Z,0.10
2022-08-19T22:52:57.633Z,0.30
2022-08-19T22:55:24.898Z,0.13
2022-08-19T22:57:51.287Z,0.55
2022-08-19T23:00:17.648Z,0.75
2022-08-19T23:02:51.544Z,0.28
2022-08-19T23:05:21.887Z,0.30
2022-08-19T23:07:50.123Z,0.20
2022-08-19T23:10:27.107Z,0.10
2022-08-19T23:12:54.536Z,0.10
2022-08-19T23:15:24.134Z,0.10
2022-08-19T23:17:50.961Z,0.10
2022-08-19T23:20:17.424Z,0.10
2022-08-19T23:22:44.742Z,0.20
2022-08-19T23:25:12.271Z,0.30
2022-08-19T23:27:57.195Z,0.10
2022-08-19T23:30:26.557Z,0.40
2022-08-19T23:32:54.110Z,0.10
2022-08-19T23:35:20.581Z,0.25
2022-08-19T23:37:47.972Z,0.10
2022-08-19T23:40:16.286Z,0.20
2022-08-19T23:42:44.416Z,0.10
2022-08-19T23:45:10.948Z,0.20
2022-08-19T23:47:37.331Z,0.10
2022-08-19T23:50:09.877Z,0.20
2022-08-19T23:52:50.025Z,0.10
2022-08-19T23:55:16.882Z,0.10
2022-08-19T23:57:43.222Z,0.13
